createdAt,value
2018-01-31T01:52:21.110Z,13.52
2018-01-31T01:54:41.119Z,13.98
2018-01-31T01:57:07.394Z,13.60
2018-01-31T01:59:33.728Z,12.70
2018-01-31T02:01:59.988Z,13.68
2018-01-31T02:04:26.751Z,13.70
2018-01-31T02:06:53.080Z,12.60
2018-01-31T02:09:19.482Z,11.98
2018-01-31T02:11:45.732Z,13.18
2018-01-31T02:14:12.274Z,12.18
2018-01-31T02:16:38.530Z,13.70
2018-01-31T02:19:04.800Z,11.80
2018-01-31T02:21:31.408Z,13.02
2018-01-31T02:23:57.689Z,13.30
2018-01-31T02:26:23.935Z,12.00
2018-01-31T02:28:50.197Z,12.68
2018-01-31T02:31:16.442Z,12.40
2018-01-31T02:33:42.747Z,11.40
2018-01-31T02:36:09.074Z,11.77
2018-01-31T02:38:47.470Z,12.75
2018-01-31T02:41:13.773Z,11.93
2018-01-31T02:43:40.035Z,13.30
2018-01-31T02:46:06.265Z,12.05
2018-01-31T02:48:32.519Z,11.88
2018-01-31T02:50:59.354Z,11.48
2018-01-31T02:53:25.710Z,10.52
2018-01-31T02:55:52.338Z,9.60
2018-01-31T02:58:18.600Z,8.93
2018-01-31T03:00:44.870Z,9.85
2018-01-31T03:03:11.151Z,9.07
2018-01-31T03:05:37.371Z,9.02
2018-01-31T03:08:03.707Z,8.95
2018-01-31T03:10:30.426Z,9.10
2018-01-31T03:12:57.102Z,8.68
2018-01-31T03:15:23.354Z,8.18
2018-01-31T03:17:49.645Z,7.78
2018-01-31T03:20:15.915Z,7.15
2018-01-31T03:22:42.139Z,7.45
2018-01-31T03:25:08.410Z,6.47
2018-01-31T03:27:34.745Z,6.28
2018-01-31T03:30:01.367Z,7.40
2018-01-31T03:32:28.015Z,7.00
2018-01-31T03:34:55.629Z,6.45
2018-01-31T03:37:21.947Z,5.72
2018-01-31T03:39:48.164Z,6.03
2018-01-31T03:42:14.399Z,5.30
2018-01-31T03:44:40.660Z,5.57
2018-01-31T03:47:06.957Z,5.05
2018-01-31T03:49:33.219Z,5.20
2018-01-31T03:51:59.448Z,4.87
2018-01-31T03:54:26.684Z,4.60
2018-01-31T03:56:53.938Z,4.50
2018-01-31T03:59:20.229Z,4.80
2018-01-31T04:01:46.592Z,4.60
2018-01-31T04:04:12.832Z,4.15
2018-01-31T04:06:39.175Z,3.45
2018-01-31T04:09:05.417Z,3.90
2018-01-31T04:11:31.751Z,4.62
2018-01-31T04:13:58.067Z,4.30
2018-01-31T04:16:24.307Z,4.25
2018-01-31T04:18:50.593Z,4.65
2018-01-31T04:21:16.854Z,4.62
2018-01-31T04:23:43.104Z,4.18
2018-01-31T04:26:09.745Z,4.65
2018-01-31T04:28:36.382Z,4.32
2018-01-31T04:31:02.993Z,5.85
2018-01-31T04:33:29.261Z,4.65
2018-01-31T04:35:55.894Z,5.85
2018-01-31T04:38:22.513Z,5.97
2018-01-31T04:40:48.779Z,6.22
2018-01-31T04:43:15.017Z,7.32
2018-01-31T04:45:41.262Z,10.35
2018-01-31T04:48:07.502Z,12.37
2018-01-31T04:50:33.768Z,13.20
2018-01-31T04:52:59.993Z,10.85
2018-01-31T04:55:26.231Z,10.32
2018-01-31T04:57:52.857Z,9.50
2018-01-31T05:00:19.096Z,8.93
2018-01-31T05:02:45.339Z,8.00
2018-01-31T05:05:11.552Z,7.20
2018-01-31T05:07:38.040Z,7.20
2018-01-31T05:10:04.270Z,8.15
2018-01-31T05:12:30.512Z,6.78
2018-01-31T05:14:56.737Z,7.10
2018-01-31T05:17:22.957Z,7.65
2018-01-31T05:19:49.193Z,8.55
2018-01-31T05:22:15.430Z,9.02
2018-01-31T05:24:41.742Z,8.45
2018-01-31T05:27:07.993Z,8.23
2018-01-31T05:29:34.233Z,8.35
2018-01-31T05:32:00.500Z,7.32
2018-01-31T05:34:26.746Z,7.15
2018-01-31T05:36:53.010Z,6.90
2018-01-31T05:39:19.629Z,7.30
2018-01-31T05:41:45.882Z,7.32
2018-01-31T05:44:12.484Z,7.32
2018-01-31T05:46:38.727Z,6.25
2018-01-31T05:49:04.968Z,6.55
2018-01-31T05:51:32.601Z,6.85
2018-01-31T05:53:58.891Z,7.47
2018-01-31T05:56:25.146Z,6.95
2018-01-31T05:58:51.379Z,6.47
2018-01-31T06:01:17.653Z,7.55
2018-01-31T06:03:43.927Z,7.43
2018-01-31T06:06:10.129Z,6.90
2018-01-31T06:08:36.426Z,6.45
2018-01-31T06:11:02.661Z,7.03
2018-01-31T06:13:29.294Z,6.75
2018-01-31T06:15:55.490Z,8.63
2018-01-31T06:18:22.451Z,9.85
2018-01-31T06:20:48.673Z,8.75
2018-01-31T06:23:14.937Z,7.95
2018-01-31T06:25:41.535Z,7.97
2018-01-31T06:28:07.797Z,7.68
2018-01-31T06:30:34.985Z,7.68
2018-01-31T06:33:01.265Z,7.40
2018-01-31T06:35:27.530Z,7.37
2018-01-31T06:37:53.758Z,7.47
2018-01-31T06:40:19.989Z,7.40
2018-01-31T06:42:46.295Z,9.02
2018-01-31T06:45:13.005Z,8.20
2018-01-31T06:47:39.311Z,8.82
2018-01-31T06:50:05.544Z,8.30
2018-01-31T06:52:31.836Z,8.68
2018-01-31T06:54:58.094Z,7.15
2018-01-31T06:57:24.340Z,7.57
2018-01-31T06:59:50.575Z,6.97
2018-01-31T07:02:17.711Z,6.90
2018-01-31T07:04:43.990Z,6.97
2018-01-31T07:12:56.455Z,7.35
2018-01-31T07:15:23.319Z,8.00
2018-01-31T07:17:50.459Z,8.10
2018-01-31T07:20:16.726Z,9.73
2018-01-31T07:22:42.972Z,12.30
2018-01-31T07:25:09.569Z,9.60
2018-01-31T07:27:35.792Z,9.60
2018-01-31T07:30:02.060Z,9.98
2018-01-31T07:32:28.336Z,9.25
2018-01-31T07:34:54.668Z,9.73
2018-01-31T07:37:20.893Z,9.73
2018-01-31T07:39:47.157Z,10.10
2018-01-31T07:42:13.398Z,10.10
2018-01-31T07:44:39.661Z,8.65
2018-01-31T07:47:05.884Z,10.55
2018-01-31T07:49:32.109Z,9.98
2018-01-31T07:51:58.334Z,9.15
2018-01-31T07:54:24.949Z,10.93
2018-01-31T07:56:51.740Z,11.15
2018-01-31T07:59:18.007Z,11.20
2018-01-31T08:01:44.247Z,11.35
2018-01-31T08:04:10.464Z,12.52
2018-01-31T08:06:36.736Z,11.93
2018-01-31T08:09:03.124Z,12.50
2018-01-31T08:11:29.341Z,13.20
2018-01-31T08:13:55.622Z,12.98
2018-01-31T08:16:22.647Z,13.27
2018-01-31T08:18:49.302Z,11.68
2018-01-31T08:24:15.406Z,12.88
2018-01-31T08:26:44.856Z,13.82
2018-01-31T08:29:16.939Z,14.68
2018-01-31T08:31:43.743Z,13.68
2018-01-31T08:34:10.343Z,13.35
2018-01-31T08:36:36.605Z,13.82
2018-01-31T08:39:03.358Z,13.68
2018-01-31T08:41:30.049Z,15.85
2018-01-31T08:43:56.392Z,13.50
2018-01-31T08:46:22.631Z,14.68
2018-01-31T08:48:48.929Z,15.18
2018-01-31T08:51:15.174Z,14.05
2018-01-31T08:53:41.444Z,14.15
2018-01-31T08:56:08.046Z,18.58
2018-01-31T08:58:34.325Z,16.37
2018-01-31T09:01:00.601Z,16.12
2018-01-31T09:03:26.812Z,19.98
2018-01-31T09:05:53.087Z,20.37
2018-01-31T09:08:19.712Z,18.30
2018-01-31T09:10:46.096Z,17.00
2018-01-31T09:13:12.429Z,16.08
2018-01-31T09:15:38.743Z,18.48
2018-01-31T09:18:05.140Z,24.67
2018-01-31T09:20:31.382Z,31.50
2018-01-31T09:22:57.667Z,26.30
2018-01-31T09:25:24.015Z,26.92
2018-01-31T09:27:50.289Z,22.23
2018-01-31T09:30:16.610Z,19.85
2018-01-31T09:32:43.306Z,17.08
2018-01-31T09:35:09.628Z,14.85
2018-01-31T09:37:35.970Z,15.10
2018-01-31T09:40:02.341Z,16.60
2018-01-31T09:42:28.965Z,15.13
2018-01-31T09:44:55.794Z,15.68
2018-01-31T09:47:23.065Z,16.33
2018-01-31T09:49:49.762Z,15.48
2018-01-31T09:52:17.806Z,18.62
2018-01-31T09:54:42.390Z,21.98
2018-01-31T09:57:08.706Z,20.10
2018-01-31T09:59:35.006Z,21.15
2018-01-31T10:02:01.259Z,22.83
2018-01-31T10:04:27.912Z,21.35
2018-01-31T10:06:54.131Z,20.83
2018-01-31T10:09:20.582Z,19.87
2018-01-31T10:11:46.837Z,17.70
2018-01-31T10:14:13.115Z,17.65
2018-01-31T10:16:39.424Z,18.80
2018-01-31T10:19:05.650Z,20.42
2018-01-31T10:21:32.355Z,17.45
2018-01-31T10:23:58.681Z,16.58
2018-01-31T10:26:24.984Z,15.52
2018-01-31T10:28:51.248Z,16.17
2018-01-31T10:31:17.501Z,14.70
2018-01-31T10:33:43.760Z,15.73
2018-01-31T10:36:10.025Z,17.05
2018-01-31T10:38:36.270Z,15.30
2018-01-31T10:41:02.577Z,16.20
2018-01-31T10:43:28.805Z,12.93
2018-01-31T10:45:55.032Z,14.90
2018-01-31T10:48:21.324Z,13.27
2018-01-31T10:50:47.981Z,13.05
2018-01-31T10:53:14.298Z,14.48
2018-01-31T10:58:07.265Z,13.30
2018-01-31T11:00:33.503Z,13.05
2018-01-31T11:02:59.856Z,12.23
2018-01-31T11:05:26.130Z,11.68
2018-01-31T11:07:52.410Z,11.10
2018-01-31T11:10:18.690Z,11.82
2018-01-31T11:12:44.956Z,12.70
2018-01-31T11:15:11.206Z,13.05
2018-01-31T11:17:37.519Z,11.70
2018-01-31T11:20:03.866Z,10.93
2018-01-31T11:22:30.238Z,10.80
2018-01-31T11:24:56.495Z,10.73
2018-01-31T11:27:22.739Z,9.67
2018-01-31T11:29:49.040Z,8.90
2018-01-31T11:32:15.354Z,6.53
2018-01-31T11:34:41.720Z,6.00
2018-01-31T11:37:09.707Z,6.43
2018-01-31T11:39:35.934Z,5.97
2018-01-31T11:42:02.197Z,5.50
2018-01-31T11:44:28.424Z,6.97
2018-01-31T11:46:54.685Z,7.62
2018-01-31T11:49:20.933Z,6.45
2018-01-31T11:51:47.389Z,5.20
2018-01-31T11:54:13.633Z,6.00
2018-01-31T11:56:39.954Z,6.15
2018-01-31T11:59:06.236Z,6.40
2018-01-31T12:01:32.554Z,5.93
2018-01-31T12:03:58.788Z,5.85
2018-01-31T12:06:25.421Z,6.20
2018-01-31T12:08:52.035Z,6.78
2018-01-31T12:11:18.340Z,6.40
2018-01-31T12:14:08.455Z,6.20
2018-01-31T12:16:47.053Z,5.18
2018-01-31T12:19:34.266Z,5.10
2018-01-31T12:22:00.591Z,5.12
2018-01-31T12:24:39.089Z,5.85
2018-01-31T12:27:17.554Z,5.47
2018-01-31T12:29:56.246Z,5.65
2018-01-31T12:32:34.725Z,4.75
2018-01-31T12:35:13.076Z,5.18
2018-01-31T12:37:51.888Z,5.25
2018-01-31T12:40:17.922Z,5.32
2018-01-31T12:42:43.994Z,5.50
2018-01-31T12:45:10.015Z,4.18
2018-01-31T12:47:48.506Z,5.15
2018-01-31T12:50:26.840Z,5.97
2018-01-31T12:53:05.257Z,5.68
2018-01-31T12:55:43.719Z,5.12
2018-01-31T12:58:22.127Z,5.45
2018-01-31T13:01:00.667Z,5.45
2018-01-31T13:03:39.142Z,4.97
2018-01-31T13:06:17.621Z,5.37
2018-01-31T13:08:56.086Z,5.70
2018-01-31T13:11:34.481Z,5.80
2018-01-31T13:14:13.058Z,6.32
2018-01-31T13:16:51.433Z,6.62
2018-01-31T13:19:17.878Z,6.30
2018-01-31T13:21:56.403Z,5.82
2018-01-31T13:24:46.675Z,7.07
2018-01-31T13:27:22.897Z,5.90
2018-01-31T13:30:02.124Z,6.62
2018-01-31T13:32:40.765Z,6.10
2018-01-31T13:35:19.585Z,6.55
2018-01-31T13:38:04.194Z,6.72
2018-01-31T13:40:42.659Z,5.60
2018-01-31T13:43:29.851Z,6.95
2018-01-31T13:46:08.264Z,7.35
2018-01-31T13:48:46.736Z,6.70
2018-01-31T13:51:25.273Z,8.05
2018-01-31T13:54:03.747Z,7.43
2018-01-31T13:56:42.191Z,7.20
2018-01-31T13:59:20.751Z,8.25
2018-01-31T14:02:00.390Z,9.50
2018-01-31T14:04:38.935Z,9.75
2018-01-31T14:07:17.263Z,9.82
2018-01-31T14:09:55.634Z,9.05
2018-01-31T14:12:37.195Z,7.45
2018-01-31T14:15:15.652Z,8.75
2018-01-31T14:17:54.135Z,8.85
2018-01-31T14:20:32.553Z,10.75
2018-01-31T14:23:10.933Z,9.70
2018-01-31T14:25:49.444Z,8.70
2018-01-31T14:28:27.898Z,8.40
2018-01-31T14:31:06.496Z,8.35
2018-01-31T14:33:54.662Z,9.88
2018-01-31T14:36:20.711Z,8.60
2018-01-31T14:38:47.219Z,8.40
2018-01-31T14:41:13.281Z,8.85
2018-01-31T14:43:39.349Z,9.60
2018-01-31T14:46:05.378Z,7.60
2018-01-31T14:48:31.444Z,9.13
2018-01-31T14:50:57.892Z,8.38
2018-01-31T14:53:23.951Z,8.23
2018-01-31T14:55:49.997Z,8.73
2018-01-31T14:58:16.091Z,7.72
2018-01-31T15:00:42.120Z,8.15
2018-01-31T15:03:08.207Z,8.25
2018-01-31T15:05:34.310Z,8.10
2018-01-31T15:08:00.382Z,8.50
2018-01-31T15:10:26.429Z,8.82
2018-01-31T15:12:53.374Z,9.77
2018-01-31T15:15:19.400Z,9.07
2018-01-31T15:17:45.447Z,8.80
2018-01-31T15:20:11.509Z,8.93
2018-01-31T15:22:37.652Z,8.57
2018-01-31T15:25:03.712Z,7.45
2018-01-31T15:27:29.794Z,8.32
2018-01-31T15:29:55.874Z,7.97
2018-01-31T15:32:22.353Z,8.57
2018-01-31T15:34:48.405Z,9.00
2018-01-31T15:37:14.478Z,7.12
2018-01-31T15:39:40.590Z,8.80
2018-01-31T15:42:07.007Z,8.63
2018-01-31T15:44:33.428Z,8.23
2018-01-31T15:46:59.476Z,8.55
2018-01-31T15:49:25.857Z,7.87
2018-01-31T15:51:51.939Z,7.18
2018-01-31T15:54:18.042Z,7.75
2018-01-31T15:56:44.085Z,6.47
2018-01-31T15:59:10.107Z,7.78
2018-01-31T16:01:36.417Z,7.30
2018-01-31T16:04:02.821Z,6.35
2018-01-31T16:06:28.880Z,7.18
2018-01-31T16:08:55.314Z,6.90
2018-01-31T16:11:21.750Z,6.72
2018-01-31T16:13:49.089Z,7.10
2018-01-31T16:16:16.409Z,7.82
2018-01-31T16:18:54.727Z,9.30
2018-01-31T16:21:25.783Z,8.10
2018-01-31T16:23:52.091Z,8.30
2018-01-31T16:26:18.353Z,7.85
2018-01-31T16:28:56.942Z,7.47
2018-01-31T16:31:35.404Z,8.32
2018-01-31T16:34:02.125Z,8.02
2018-01-31T16:36:28.388Z,9.07
2018-01-31T16:38:54.620Z,10.13
2018-01-31T16:41:20.937Z,9.05
2018-01-31T16:43:47.598Z,9.88
2018-01-31T16:46:13.847Z,9.38
2018-01-31T16:48:40.163Z,7.82
2018-01-31T16:51:06.414Z,9.57
2018-01-31T16:53:32.675Z,9.73
2018-01-31T16:55:59.392Z,8.98
2018-01-31T16:58:25.692Z,9.70
2018-01-31T17:00:52.055Z,10.65
2018-01-31T17:03:18.375Z,10.27
2018-01-31T17:05:44.702Z,9.93
2018-01-31T17:08:11.050Z,9.40
2018-01-31T17:10:37.340Z,11.10
2018-01-31T17:13:03.651Z,9.88
2018-01-31T17:15:29.937Z,8.93
2018-01-31T17:17:56.270Z,9.73
2018-01-31T17:20:22.578Z,9.27
2018-01-31T17:22:48.805Z,9.68
2018-01-31T17:25:15.110Z,10.90
2018-01-31T17:27:41.401Z,11.20
2018-01-31T17:30:08.207Z,11.82
2018-01-31T17:32:34.535Z,10.23
2018-01-31T17:35:00.817Z,9.88
2018-01-31T17:37:27.458Z,10.30
2018-01-31T17:39:54.135Z,11.52
2018-01-31T17:42:20.402Z,11.68
2018-01-31T17:44:46.708Z,11.48
2018-01-31T17:47:13.657Z,11.20
2018-01-31T17:49:39.968Z,10.65
2018-01-31T17:52:06.297Z,10.65
2018-01-31T17:54:32.638Z,10.30
2018-01-31T17:56:58.865Z,10.60
2018-01-31T17:59:25.176Z,11.95
2018-01-31T18:01:51.433Z,11.38
2018-01-31T18:04:17.797Z,11.70
2018-01-31T18:06:44.483Z,13.52
2018-01-31T18:09:10.766Z,13.52
2018-01-31T18:11:38.463Z,12.30
2018-01-31T18:14:04.808Z,11.80
2018-01-31T18:16:31.121Z,12.50
2018-01-31T18:18:57.406Z,12.52
2018-01-31T18:21:23.653Z,10.05
2018-01-31T18:23:50.331Z,11.43
2018-01-31T18:26:16.628Z,12.57
2018-01-31T18:28:42.942Z,16.37
2018-01-31T18:31:09.664Z,12.45
2018-01-31T18:33:36.015Z,11.45
2018-01-31T18:36:02.658Z,12.02
2018-01-31T18:38:29.297Z,11.15
2018-01-31T18:40:55.909Z,10.95
2018-01-31T18:43:23.157Z,11.70
2018-01-31T18:45:50.674Z,10.88
2018-01-31T18:48:17.464Z,11.65
2018-01-31T18:50:44.282Z,10.30
2018-01-31T18:53:10.589Z,11.48
2018-01-31T18:55:36.944Z,9.73
2018-01-31T18:58:03.197Z,10.98
2018-01-31T19:00:29.467Z,10.27
2018-01-31T19:02:55.775Z,11.50
2018-01-31T19:05:22.613Z,10.40
2018-01-31T19:07:49.039Z,11.18
2018-01-31T19:10:16.193Z,12.18
2018-01-31T19:12:42.806Z,10.88
2018-01-31T19:15:09.081Z,11.85
2018-01-31T19:17:35.460Z,12.13
2018-01-31T19:20:01.813Z,10.00
2018-01-31T19:22:28.973Z,11.20
2018-01-31T19:24:56.510Z,10.75
2018-01-31T19:27:23.093Z,10.63
2018-01-31T19:29:49.474Z,11.48
2018-01-31T19:32:16.789Z,10.65
2018-01-31T19:34:43.075Z,11.65
2018-01-31T19:37:09.382Z,36.08
2018-01-31T19:39:35.642Z,17.50
2018-01-31T19:42:02.290Z,16.25
2018-01-31T19:44:29.006Z,18.30
2018-01-31T19:46:55.302Z,14.13
2018-01-31T19:49:21.584Z,11.43
2018-01-31T19:51:48.204Z,12.90
2018-01-31T19:54:14.530Z,15.40
2018-01-31T19:56:41.188Z,14.30
2018-01-31T19:59:07.514Z,14.52
2018-01-31T20:01:34.220Z,15.13
2018-01-31T20:04:00.531Z,15.65
2018-01-31T20:06:26.810Z,18.90
2018-01-31T20:08:54.088Z,20.00
2018-01-31T20:11:20.429Z,21.83
2018-01-31T20:13:48.872Z,22.67
2018-01-31T20:16:15.493Z,23.67
2018-01-31T20:18:41.789Z,23.17
2018-01-31T20:21:08.054Z,24.60
2018-01-31T20:23:34.430Z,15.32
2018-01-31T20:26:04.185Z,13.18
2018-01-31T20:28:30.452Z,10.40
2018-01-31T20:30:56.729Z,15.10
2018-01-31T20:33:22.978Z,13.62
2018-01-31T20:35:49.302Z,13.75
2018-01-31T20:38:15.572Z,14.30
2018-01-31T20:40:41.805Z,18.35
2018-01-31T20:43:08.108Z,21.05
2018-01-31T20:45:34.401Z,18.15
2018-01-31T20:48:00.690Z,14.57
2018-01-31T20:50:27.398Z,14.38
2018-01-31T20:52:53.686Z,13.25
2018-01-31T20:55:19.958Z,12.20
2018-01-31T20:57:46.213Z,12.05
2018-01-31T21:00:12.610Z,12.05
2018-01-31T21:02:38.899Z,12.60
2018-01-31T21:05:05.651Z,12.05
2018-01-31T21:07:32.759Z,13.02
2018-01-31T21:09:59.431Z,11.60
2018-01-31T21:12:25.715Z,12.75
2018-01-31T21:14:52.009Z,15.55
2018-01-31T21:17:19.340Z,15.50
2018-01-31T21:19:45.662Z,16.10
2018-01-31T21:22:11.969Z,17.95
2018-01-31T21:24:38.663Z,19.67
2018-01-31T21:27:05.143Z,22.37
2018-01-31T21:29:31.549Z,20.37
2018-01-31T21:31:57.897Z,17.37
2018-01-31T21:34:24.512Z,16.05
2018-01-31T21:36:50.755Z,16.85
2018-01-31T21:39:17.050Z,17.02
2018-01-31T21:41:43.620Z,16.00
2018-01-31T21:44:09.924Z,13.50
2018-01-31T21:46:36.189Z,13.93
2018-01-31T21:49:02.478Z,11.25
2018-01-31T21:51:28.736Z,14.60
2018-01-31T21:53:55.028Z,12.25
2018-01-31T21:56:21.454Z,13.65
2018-01-31T21:58:47.765Z,12.90
2018-01-31T22:01:14.032Z,13.80
2018-01-31T22:03:40.377Z,10.77
2018-01-31T22:06:06.664Z,8.35
2018-01-31T22:08:32.991Z,7.05
2018-01-31T22:10:59.285Z,5.68
2018-01-31T22:13:25.596Z,4.15
2018-01-31T22:15:51.921Z,3.33
2018-01-31T22:18:18.289Z,3.30
2018-01-31T22:20:44.908Z,1.92
2018-01-31T22:23:11.541Z,1.92
2018-01-31T22:25:38.610Z,2.22
2018-01-31T22:28:05.366Z,1.42
2018-01-31T22:30:31.689Z,2.35
2018-01-31T22:32:57.983Z,2.50
2018-01-31T22:35:24.281Z,4.82
2018-01-31T22:37:50.567Z,6.15
2018-01-31T22:40:17.266Z,4.93
2018-01-31T22:42:43.560Z,6.25
2018-01-31T22:45:09.822Z,5.53
2018-01-31T22:47:36.071Z,6.22
2018-01-31T22:50:03.148Z,2.50
2018-01-31T22:52:29.805Z,1.95
2018-01-31T22:54:56.017Z,1.42
2018-01-31T22:57:23.559Z,1.45
2018-01-31T22:59:50.198Z,2.60
2018-01-31T23:02:16.889Z,2.53
2018-01-31T23:04:43.167Z,1.00
2018-01-31T23:07:09.782Z,1.33
2018-01-31T23:09:36.157Z,0.93
2018-01-31T23:12:08.345Z,0.98
2018-01-31T23:14:40.631Z,1.90
2018-01-31T23:17:06.942Z,1.37
2018-01-31T23:19:33.161Z,1.50
2018-01-31T23:21:59.443Z,2.15
2018-01-31T23:24:25.693Z,7.22
2018-01-31T23:26:52.004Z,3.87
2018-01-31T23:29:18.260Z,5.25
2018-01-31T23:31:44.470Z,51.53
2018-01-31T23:34:11.117Z,155.63
2018-01-31T23:36:37.752Z,49.75
2018-01-31T23:39:04.381Z,70.85
2018-01-31T23:41:31.058Z,100.90
2018-01-31T23:43:57.462Z,51.75
2018-01-31T23:46:24.085Z,210.10
2018-01-31T23:48:50.785Z,84.25
2018-01-31T23:51:17.068Z,197.18
2018-01-31T23:53:43.671Z,114.10
2018-01-31T23:56:09.893Z,197.93
2018-01-31T23:58:36.147Z,42.42
